Aviation Digital Data Service (ADDS)

Output produced by METARs form (2317 UTC 18 October 2019)
found at http://www.aviationweather.gov/metar/data/
 
METAR text: KGYI 182250Z 13008KT 10SM CLR 24/04 A2975
Conditions at: KGYI (SHERMAN/DENISON , TX, US) observed 2250 UTC 18 October 2019
Temperature: 24.0°C (75°F)
Dewpoint: 4.0°C (39°F) [RH = 27%]
Pressure (altimeter): 29.75 inches Hg (1007.5 mb)
Winds: from the SE (130 degrees) at 9 MPH (8 knots; 4.1 m/s)
Visibility: 10 or more miles (16+ km)
Ceiling: at least 12,000 feet AGL
Clouds: sky clear below 12,000 feet AGL
Weather: no significant weather observed at this time